Time;durP1;ratioP1;P1;durP2;ratioP2;P2;SDS_P1;SDS_P2;PMS_P1;PMS_P2;Temp;Humidity;BMP_temperature;BMP_pressure;BME280_temperature;BME280_humidity;BME280_pressure;Samples;Min_cycle;Max_cycle;Signal;HPM_P1;HPM_P2
2023/04/18 00:00:09;;;;;;;4.60;2.60;;;;;;;11.57;43.12;100955.20;108142;1254;73660;-85
2023/04/18 00:02:42;;;;;;;4.70;2.50;;;;;;;11.57;43.30;100959.10;108194;1254;60471;-84
2023/04/18 00:05:11;;;;;;;4.90;2.60;;;;;;;11.56;43.33;100951.62;108142;1253;60464;-86
2023/04/18 00:07:40;;;;;;;5.50;2.50;;;;;;;11.54;43.37;100953.15;108261;1254;73765;-86
2023/04/18 00:10:09;;;;;;;5.10;2.60;;;;;;;11.53;43.36;100950.09;108047;1253;72459;-84
2023/04/18 00:12:41;;;;;;;5.80;3.00;;;;;;;11.54;43.28;100952.17;108131;1257;73852;-87
2023/04/18 00:15:11;;;;;;;3.90;2.40;;;;;;;11.54;43.37;100953.20;108315;1253;60949;-85
2023/04/18 00:17:40;;;;;;;4.90;2.40;;;;;;;11.55;43.24;100950.42;108181;1254;60374;-85
2023/04/18 00:20:10;;;;;;;5.40;2.90;;;;;;;11.55;43.24;100952.34;108147;1253;74987;-86
2023/04/18 00:22:42;;;;;;;5.00;2.60;;;;;;;11.55;43.11;100950.27;108210;1253;73073;-86
2023/04/18 00:25:12;;;;;;;4.50;2.50;;;;;;;11.55;43.07;100951.86;108409;1256;72325;-84
2023/04/18 00:27:40;;;;;;;5.60;2.70;;;;;;;11.53;43.02;100950.89;108714;1253;59314;-83
2023/04/18 00:30:09;;;;;;;5.50;2.80;;;;;;;11.53;43.04;100947.09;108745;1253;59640;-84
2023/04/18 00:32:38;;;;;;;5.80;2.30;;;;;;;11.52;43.24;100951.20;108663;1253;71923;-85
2023/04/18 00:35:06;;;;;;;4.50;2.50;;;;;;;11.50;43.18;100947.96;108732;1253;70710;-85
2023/04/18 00:37:39;;;;;;;5.30;2.50;;;;;;;11.48;43.17;100947.85;108451;1253;71854;-86
2023/04/18 00:40:16;;;;;;;4.80;2.90;;;;;;;11.47;43.00;100941.73;108877;1254;60297;-85
2023/04/18 00:43:25;;;;;;;4.50;2.50;;;;;;;11.47;43.13;100942.22;108654;1255;60327;-85
2023/04/18 00:46:00;;;;;;;5.20;2.70;;;;;;;11.46;43.11;100938.21;108142;1256;72163;-85
2023/04/18 00:48:29;;;;;;;4.70;2.60;;;;;;;11.46;43.28;100937.83;108188;1253;72961;-86
2023/04/18 00:50:59;;;;;;;6.60;3.00;;;;;;;11.45;43.13;100939.27;108078;1253;71829;-86
2023/04/18 00:53:27;;;;;;;4.90;3.10;;;;;;;11.44;43.30;100938.12;108019;1254;60773;-86
2023/04/18 00:55:56;;;;;;;4.30;2.60;;;;;;;11.41;43.21;100935.16;107960;1253;60270;-86
2023/04/18 00:58:24;;;;;;;6.00;2.70;;;;;;;11.39;43.20;100933.75;108120;1253;74913;-87
2023/04/18 01:00:53;;;;;;;4.70;2.70;;;;;;;11.37;43.22;100934.05;108159;1253;71250;-86
2023/04/18 01:03:22;;;;;;;6.00;2.90;;;;;;;11.36;43.37;100932.55;108057;1254;71709;-88
2023/04/18 01:05:52;;;;;;;4.80;2.60;;;;;;;11.35;43.41;100932.84;108088;1253;60557;-88
2023/04/18 01:08:21;;;;;;;5.90;3.10;;;;;;;11.32;43.43;100932.72;108181;1253;61165;-86
2023/04/18 01:10:50;;;;;;;7.00;3.10;;;;;;;11.31;43.45;100934.36;108143;1253;74851;-83
2023/04/18 01:13:19;;;;;;;6.80;3.10;;;;;;;11.29;43.57;100934.39;108217;1253;72643;-84
2023/04/18 01:15:48;;;;;;;4.50;2.80;;;;;;;11.26;43.51;100936.03;108213;1253;72668;-84
2023/04/18 01:18:17;;;;;;;4.50;2.90;;;;;;;11.25;43.61;100939.27;108092;1253;60545;-84
2023/04/18 01:20:48;;;;;;;6.70;3.30;;;;;;;11.22;43.74;100941.17;108118;1253;60287;-83
2023/04/18 01:23:17;;;;;;;5.70;3.10;;;;;;;11.20;43.78;100943.94;108049;1253;72938;-86
2023/04/18 01:25:45;;;;;;;5.70;2.90;;;;;;;11.20;43.81;100943.83;108075;1253;72872;-86
2023/04/18 01:28:14;;;;;;;6.30;3.10;;;;;;;11.19;43.60;100941.63;108171;1258;72280;-87
2023/04/18 01:30:43;;;;;;;6.20;3.10;;;;;;;11.18;43.69;100940.86;108091;1253;60406;-87
2023/04/18 01:33:13;;;;;;;5.60;2.70;;;;;;;11.18;43.79;100941.55;108103;1253;60316;-87
2023/04/18 01:35:42;;;;;;;5.00;3.00;;;;;;;11.16;43.93;100943.58;107965;1253;73737;-87
2023/04/18 01:38:11;;;;;;;6.40;3.00;;;;;;;11.15;43.83;100942.15;107978;1253;71516;-86
2023/04/18 01:40:39;;;;;;;6.00;3.10;;;;;;;11.15;44.01;100945.04;108092;1253;74359;-87
2023/04/18 01:43:08;;;;;;;5.30;3.00;;;;;;;11.13;44.06;100939.75;107933;1254;60311;-86
2023/04/18 01:45:37;;;;;;;6.30;3.20;;;;;;;11.12;44.01;100938.18;108215;1253;59692;-85
2023/04/18 01:48:07;;;;;;;6.40;3.10;;;;;;;11.11;44.14;100941.59;108233;1253;73892;-87
2023/04/18 01:50:37;;;;;;;4.90;3.00;;;;;;;11.10;44.19;100942.48;108224;1253;72702;-86
2023/04/18 01:53:06;;;;;;;5.60;3.20;;;;;;;11.10;44.13;100947.52;108149;1253;73592;-85
2023/04/18 01:55:36;;;;;;;5.40;2.80;;;;;;;11.08;44.41;100944.70;108184;1253;60194;-85
2023/04/18 01:58:06;;;;;;;5.60;2.90;;;;;;;11.06;44.35;100941.21;108097;1256;60390;-83
2023/04/18 02:00:36;;;;;;;7.60;3.50;;;;;;;11.05;44.37;100941.69;108027;1258;74138;-85
2023/04/18 02:03:05;;;;;;;7.50;3.30;;;;;;;11.05;44.35;100943.39;108133;1253;71885;-85
2023/04/18 02:05:36;;;;;;;6.50;3.20;;;;;;;11.05;44.67;100941.73;108268;1253;72046;-85
2023/04/18 02:08:10;;;;;;;7.10;3.50;;;;;;;11.05;44.47;100939.81;108788;1255;60427;-81
2023/04/18 02:10:38;;;;;;;8.00;3.80;;;;;;;11.07;44.56;100937.59;108843;1254;60096;-86
2023/04/18 02:13:07;;;;;;;7.00;3.60;;;;;;;11.08;44.52;100937.75;108450;1256;73946;-87
2023/04/18 02:15:36;;;;;;;5.90;3.30;;;;;;;11.10;44.58;100940.52;108326;1254;71669;-86
2023/04/18 02:18:05;;;;;;;5.70;3.00;;;;;;;11.11;44.52;100939.02;108186;1253;72007;-87
2023/04/18 02:20:36;;;;;;;6.30;3.30;;;;;;;11.12;44.58;100940.48;108242;1253;60430;-85
2023/04/18 02:23:08;;;;;;;5.60;3.10;;;;;;;11.13;44.66;100940.27;108362;1253;60280;-86
2023/04/18 02:25:36;;;;;;;6.00;3.10;;;;;;;11.13;44.75;100940.00;108590;1253;73654;-86
2023/04/18 02:28:04;;;;;;;5.90;2.80;;;;;;;11.12;44.84;100938.80;108627;1254;72557;-86
2023/04/18 02:30:33;;;;;;;6.60;3.30;;;;;;;11.11;44.70;100936.83;108562;1253;72562;-86
2023/04/18 02:33:02;;;;;;;6.80;3.70;;;;;;;11.11;44.65;100939.55;108596;1254;60472;-86
2023/04/18 02:35:30;;;;;;;4.60;2.70;;;;;;;11.12;44.62;100940.20;108570;1253;60326;-87
2023/04/18 02:37:59;;;;;;;6.10;3.40;;;;;;;11.11;44.71;100939.60;108231;1257;73892;-86
2023/04/18 02:40:27;;;;;;;6.10;3.30;;;;;;;11.11;44.85;100938.91;108238;1253;74441;-86
2023/04/18 02:43:01;;;;;;;7.30;3.50;;;;;;;11.11;44.80;100935.22;108314;1254;73634;-86
2023/04/18 02:45:31;;;;;;;6.30;3.80;;;;;;;11.10;44.85;100934.90;108096;1256;60726;-87
2023/04/18 02:48:00;;;;;;;7.20;3.60;;;;;;;11.10;44.65;100937.73;108104;1253;60700;-85
2023/04/18 02:50:30;;;;;;;5.50;3.60;;;;;;;11.10;44.86;100935.73;108175;1257;73758;-85
2023/04/18 02:52:59;;;;;;;6.90;3.30;;;;;;;11.09;44.80;100936.09;108082;1253;74040;-86
2023/04/18 02:55:41;;;;;;;;;;;;;;;11.08;44.83;100939.46;108197;1253;72892;-86
2023/04/18 02:58:10;;;;;;;5.00;3.10;;;;;;;11.09;44.87;100931.23;108160;1256;60447;-86
2023/04/18 03:01:04;;;;;;;5.20;3.40;;;;;;;11.09;44.80;100928.98;107925;1253;62003;-85
2023/04/18 03:03:52;;;;;;;6.40;3.70;;;;;;;11.09;44.65;100925.30;108213;1254;73730;-85
2023/04/18 03:06:40;;;;;;;6.70;4.00;;;;;;;11.10;44.75;100927.10;108123;1254;72060;-86
2023/04/18 03:09:08;;;;;;;7.80;3.90;;;;;;;11.09;44.80;100928.31;108122;1254;72583;-85
2023/04/18 03:11:40;;;;;;;6.50;3.60;;;;;;;11.09;44.79;100932.55;108197;1253;60463;-86
2023/04/18 03:14:09;;;;;;;5.90;3.60;;;;;;;11.09;44.93;100932.85;108193;1253;60205;-84
2023/04/18 03:16:48;;;;;;;5.50;3.10;;;;;;;11.08;44.90;100932.78;108218;1253;74695;-86
2023/04/18 03:19:21;;;;;;;6.00;3.60;;;;;;;11.10;44.80;100933.51;108222;1253;72182;-85
2023/04/18 03:21:52;;;;;;;7.00;3.70;;;;;;;11.11;44.72;100931.64;108148;1253;73533;-86
2023/04/18 03:24:20;;;;;;;6.70;3.70;;;;;;;11.12;44.69;100937.27;108194;1254;59302;-84
2023/04/18 03:26:49;;;;;;;6.20;3.70;;;;;;;11.14;44.75;100938.95;108181;1253;60334;-84
2023/04/18 03:29:18;;;;;;;5.40;3.60;;;;;;;11.15;44.80;100942.65;108258;1253;73639;-84
2023/04/18 03:31:47;;;;;;;6.40;3.50;;;;;;;11.16;44.75;100944.80;108221;1253;72273;-84
2023/04/18 03:34:15;;;;;;;6.10;3.70;;;;;;;11.18;44.81;100947.21;108137;1253;73844;-86
2023/04/18 03:36:44;;;;;;;6.30;3.70;;;;;;;11.18;44.80;100951.88;108599;1253;60454;-87
2023/04/18 03:39:21;;;;;;;7.50;3.90;;;;;;;11.17;44.77;100950.91;108871;1253;60515;-86
2023/04/18 03:41:51;;;;;;;5.80;3.60;;;;;;;11.17;44.63;100949.30;108589;1256;71989;-87
2023/04/18 03:44:20;;;;;;;6.10;3.40;;;;;;;11.18;44.65;100948.61;108005;1256;73679;-86
2023/04/18 03:46:49;;;;;;;7.00;3.90;;;;;;;11.19;44.63;100941.09;108058;1255;71594;-87
2023/04/18 03:49:18;;;;;;;7.20;4.00;;;;;;;11.22;44.59;100945.86;108063;1253;60447;-86
2023/04/18 03:51:47;;;;;;;6.20;3.80;;;;;;;11.24;44.79;100940.77;108237;1254;59073;-86
2023/04/18 03:54:16;;;;;;;7.40;3.80;;;;;;;11.26;44.72;100941.48;107952;1253;72710;-85
2023/04/18 03:56:45;;;;;;;7.10;4.60;;;;;;;11.26;44.80;100939.45;108138;1253;72958;-86
2023/04/18 03:59:14;;;;;;;8.10;4.70;;;;;;;11.26;44.81;100942.62;104199;1259;5245781;-86
2023/04/18 04:01:45;;;;;;;9.50;5.10;;;;;;;11.27;44.73;100939.41;108039;1254;60790;-86
2023/04/18 04:04:14;;;;;;;7.40;4.30;;;;;;;11.29;44.68;100935.68;108177;1254;75317;-86
2023/04/18 04:06:45;;;;;;;6.90;4.10;;;;;;;11.32;44.79;100938.23;108062;1254;71671;-87
2023/04/18 04:09:14;;;;;;;6.60;3.90;;;;;;;11.35;44.77;100936.77;107960;1257;72482;-87
2023/04/18 04:11:42;;;;;;;8.50;4.40;;;;;;;11.36;44.58;100927.73;108001;1254;60335;-88
2023/04/18 04:14:11;;;;;;;8.20;3.60;;;;;;;11.38;44.47;100926.51;108188;1253;61604;-85
2023/04/18 04:16:43;;;;;;;6.40;4.10;;;;;;;11.40;44.78;100940.98;108226;1253;73142;-85
2023/04/18 04:19:14;;;;;;;8.50;4.40;;;;;;;11.42;44.99;100938.44;108277;1254;72090;-85
2023/04/18 04:21:52;;;;;;;6.60;3.70;;;;;;;11.41;44.99;100932.69;108235;1254;73531;-84
2023/04/18 04:24:21;;;;;;;6.40;4.00;;;;;;;11.43;45.39;100937.91;108126;1253;60469;-85
2023/04/18 04:26:51;;;;;;;6.20;3.60;;;;;;;11.42;45.64;100938.17;108097;1253;59006;-85
2023/04/18 04:29:23;;;;;;;7.30;3.80;;;;;;;11.43;45.74;100937.10;108138;1253;75049;-85
2023/04/18 04:31:52;;;;;;;6.50;3.80;;;;;;;11.44;45.82;100942.02;108158;1256;72381;-85
2023/04/18 04:34:34;;;;;;;8.40;3.80;;;;;;;11.42;46.20;100948.80;108065;1255;73334;-86
2023/04/18 04:37:04;;;;;;;;;;;;;;;11.38;46.53;100944.64;108273;1254;60427;-85
2023/04/18 04:39:36;;;;;;;5.90;3.70;;;;;;;11.36;46.71;100946.23;108358;1254;59548;-85
2023/04/18 04:42:18;;;;;;;7.60;4.00;;;;;;;11.34;46.84;100951.72;108061;1254;73583;-86
2023/04/18 04:44:55;;;;;;;7.90;4.20;;;;;;;11.33;46.94;100954.13;108052;1254;73438;-85
2023/04/18 04:47:25;;;;;;;6.90;4.20;;;;;;;11.34;47.00;100948.24;108099;1254;73027;-85
2023/04/18 04:49:55;;;;;;;7.10;3.90;;;;;;;11.36;46.81;100950.18;108098;1253;60390;-86
2023/04/18 04:52:23;;;;;;;6.40;3.70;;;;;;;11.37;46.87;100951.16;108183;1254;60877;-86
2023/04/18 04:54:51;;;;;;;7.50;4.50;;;;;;;11.39;46.98;100952.58;108146;1256;72741;-86
2023/04/18 04:57:21;;;;;;;8.50;3.80;;;;;;;11.41;46.83;100958.91;108086;1254;73833;-85
2023/04/18 04:59:49;;;;;;;7.20;3.80;;;;;;;11.43;47.00;100959.90;108018;1254;74014;-86
2023/04/18 05:02:27;;;;;;;6.20;3.70;;;;;;;11.44;46.78;100960.27;108176;1255;60311;-85
2023/04/18 05:04:58;;;;;;;7.70;4.10;;;;;;;11.47;46.95;100961.37;108137;1255;61005;-86
2023/04/18 05:07:29;;;;;;;7.00;3.70;;;;;;;11.50;46.65;100960.77;108828;1253;73821;-86
2023/04/18 05:09:57;;;;;;;6.90;3.70;;;;;;;11.54;46.69;100960.48;109362;1254;71948;-86
2023/04/18 05:12:26;;;;;;;6.30;4.00;;;;;;;11.59;46.50;100958.48;108435;1254;71733;-85
2023/04/18 05:14:54;;;;;;;7.20;4.00;;;;;;;11.64;46.49;100965.06;108116;1254;60454;-86
2023/04/18 05:17:23;;;;;;;6.50;3.70;;;;;;;11.70;46.64;100967.31;108137;1256;60473;-85
2023/04/18 05:19:56;;;;;;;6.30;3.90;;;;;;;11.75;46.32;100969.17;108208;1254;74858;-89
2023/04/18 05:22:24;;;;;;;7.80;4.10;;;;;;;11.80;46.13;100970.89;108268;1254;72983;-86
2023/04/18 05:24:52;;;;;;;6.40;3.50;;;;;;;11.86;46.15;100970.58;108266;1256;73319;-85
2023/04/18 05:27:21;;;;;;;8.00;4.50;;;;;;;11.92;46.14;100968.39;108247;1253;59580;-87
2023/04/18 05:29:49;;;;;;;7.70;4.10;;;;;;;12.00;45.91;100973.69;108221;1254;61586;-86
2023/04/18 05:32:18;;;;;;;7.40;4.20;;;;;;;12.07;45.83;100977.39;108255;1257;74025;-86
2023/04/18 05:34:47;;;;;;;7.50;4.00;;;;;;;12.15;45.71;100978.31;108232;1253;72722;-86
2023/04/18 05:37:15;;;;;;;8.50;4.80;;;;;;;12.22;45.34;100977.39;108317;1253;73046;-85
2023/04/18 05:39:48;;;;;;;7.90;4.00;;;;;;;12.28;45.30;100974.70;108171;1252;61321;-86
2023/04/18 05:42:18;;;;;;;7.50;4.20;;;;;;;12.33;44.94;100971.46;108377;1256;61456;-86
2023/04/18 05:44:48;;;;;;;7.70;4.20;;;;;;;12.36;45.08;100972.88;108399;1254;73107;-86
2023/04/18 05:47:16;;;;;;;8.30;4.30;;;;;;;12.42;45.01;100972.96;108380;1253;72072;-85
2023/04/18 05:49:44;;;;;;;7.10;4.00;;;;;;;12.50;45.25;100979.81;108293;1254;71854;-86
2023/04/18 05:52:13;;;;;;;7.60;4.20;;;;;;;12.61;45.22;100972.23;108383;1255;60292;-86
2023/04/18 05:54:43;;;;;;;7.50;3.90;;;;;;;12.74;44.88;100972.98;108298;1254;60542;-87
2023/04/18 05:57:12;;;;;;;6.90;3.50;;;;;;;12.83;44.48;100975.21;108412;1255;74914;-88
2023/04/18 05:59:41;;;;;;;8.60;3.90;;;;;;;12.93;44.42;100972.31;108239;1254;73902;-85
2023/04/18 06:02:12;;;;;;;6.40;3.50;;;;;;;13.04;44.26;100967.80;108218;1257;72957;-87
2023/04/18 06:04:41;;;;;;;8.40;4.30;;;;;;;13.17;44.12;100964.13;108195;1254;59355;-88
2023/04/18 06:07:10;;;;;;;7.60;3.40;;;;;;;13.31;43.73;100961.42;108272;1254;60456;-89
2023/04/18 06:09:39;;;;;;;8.20;4.10;;;;;;;13.41;42.58;100958.16;108070;1254;75041;-87
2023/04/18 06:12:08;;;;;;;7.60;3.80;;;;;;;13.51;42.86;100962.14;108258;1257;73112;-86
2023/04/18 06:14:36;;;;;;;7.70;3.90;;;;;;;13.64;42.68;100959.73;108212;1253;71362;-86
2023/04/18 06:17:06;;;;;;;6.70;3.60;;;;;;;13.78;42.56;100963.39;108285;1253;60864;-88
2023/04/18 06:19:37;;;;;;;5.00;3.10;;;;;;;13.89;42.11;100965.98;108223;1254;61100;-87
2023/04/18 06:22:07;;;;;;;6.30;3.60;;;;;;;13.98;41.88;100962.44;108214;1255;74106;-87
2023/04/18 06:24:36;;;;;;;6.30;3.40;;;;;;;14.07;41.96;100960.81;108212;1254;72350;-86
2023/04/18 06:27:04;;;;;;;8.40;3.50;;;;;;;14.18;42.22;100960.33;108197;1254;73128;-84
2023/04/18 06:29:34;;;;;;;5.20;3.00;;;;;;;14.26;41.64;100966.11;108230;1254;60715;-87
2023/04/18 06:32:05;;;;;;;5.70;3.50;;;;;;;14.32;41.61;100964.86;108210;1254;60445;-86
2023/04/18 06:34:34;;;;;;;5.30;3.40;;;;;;;14.37;41.72;100960.55;108276;1258;73983;-87
2023/04/18 06:37:02;;;;;;;6.30;3.50;;;;;;;14.40;41.43;100959.74;108831;1253;71688;-85
2023/04/18 06:39:35;;;;;;;5.50;3.40;;;;;;;14.40;41.53;100960.65;109064;1254;71308;-87
2023/04/18 06:42:04;;;;;;;7.40;3.00;;;;;;;14.42;41.58;100959.41;108603;1255;60092;-87
2023/04/18 06:44:34;;;;;;;8.00;3.70;;;;;;;14.52;41.91;100966.17;107916;1255;60491;-87
2023/04/18 06:47:03;;;;;;;5.60;2.90;;;;;;;14.61;41.65;100967.77;107984;1254;73843;-86
2023/04/18 06:49:33;;;;;;;6.10;3.10;;;;;;;14.71;41.64;100969.41;107977;1260;72980;-87
2023/04/18 06:52:03;;;;;;;4.70;3.00;;;;;;;14.73;41.58;100971.61;108010;1256;71628;-88
2023/04/18 06:54:46;;;;;;;6.10;3.50;;;;;;;14.72;41.08;100971.98;108009;1256;61034;-86
2023/04/18 06:57:25;;;;;;;7.80;3.30;;;;;;;14.70;41.47;100973.44;107974;1256;61304;-88
2023/04/18 06:59:55;;;;;;;6.30;3.20;;;;;;;14.76;41.45;100974.40;108060;1254;74926;-89
2023/04/18 07:02:41;;;;;;;4.90;3.00;;;;;;;14.83;41.24;100970.77;108115;1254;72386;-88
2023/04/18 07:05:11;;;;;;;5.00;2.80;;;;;;;15.02;40.57;100970.84;108068;1254;71091;-86
2023/04/18 07:07:39;;;;;;;7.20;3.10;;;;;;;15.08;40.09;100965.59;108071;1254;60500;-86
2023/04/18 07:10:22;;;;;;;6.40;3.10;;;;;;;14.96;40.46;100966.14;108092;1254;60306;-88
2023/04/18 07:13:13;;;;;;;6.20;2.80;;;;;;;15.05;40.29;100965.23;108051;1254;71615;-87
2023/04/18 07:15:43;;;;;;;6.90;2.80;;;;;;;15.09;40.45;100966.83;108030;1258;71458;-86
2023/04/18 07:18:19;;;;;;;7.60;3.10;;;;;;;15.13;40.37;100967.30;108006;1255;70422;-87
2023/04/18 07:21:14;;;;;;;5.40;2.80;;;;;;;15.18;40.40;100963.33;108139;1259;60337;-88
2023/04/18 07:24:09;;;;;;;11.10;3.20;;;;;;;15.27;40.32;100962.05;108156;1254;61347;-87
2023/04/18 07:26:45;;;;;;;8.20;3.00;;;;;;;15.33;39.97;100960.88;108110;1254;74249;-86
2023/04/18 07:29:20;;;;;;;7.30;2.40;;;;;;;15.37;39.76;100960.38;108042;1260;71863;-88
2023/04/18 07:31:55;;;;;;;6.50;2.80;;;;;;;15.40;40.05;100961.98;107947;1256;72653;-87
2023/04/18 07:34:28;;;;;;;8.80;2.80;;;;;;;15.46;39.87;100960.38;108122;1254;62548;-88
2023/04/18 07:37:04;;;;;;;8.10;3.00;;;;;;;15.52;39.94;100954.09;108133;1258;61637;-86
2023/04/18 07:39:37;;;;;;;5.80;2.60;;;;;;;15.61;39.66;100954.73;107987;1258;73853;-87
2023/04/18 07:42:06;;;;;;;6.20;2.60;;;;;;;15.69;39.35;100953.01;108049;1257;71607;-86
2023/04/18 07:44:38;;;;;;;8.30;2.70;;;;;;;15.78;38.79;100948.91;108016;1260;71526;-86
2023/04/18 07:47:16;;;;;;;6.80;2.60;;;;;;;15.84;38.79;100945.84;108094;1254;60440;-87
2023/04/18 07:50:12;;;;;;;7.00;2.90;;;;;;;15.96;38.37;100946.61;108322;1254;60437;-86
2023/04/18 07:52:47;;;;;;;7.70;2.60;;;;;;;16.04;38.18;100945.18;108093;1254;74960;-87
2023/04/18 07:55:23;;;;;;;7.10;3.10;;;;;;;16.13;38.33;100941.27;108058;1254;73645;-87
2023/04/18 07:57:51;;;;;;;7.30;2.90;;;;;;;16.16;38.21;100942.43;108131;1254;71326;-87
2023/04/18 08:00:20;;;;;;;7.20;3.10;;;;;;;16.18;38.16;100940.09;108106;1254;60541;-87
2023/04/18 08:02:49;;;;;;;10.10;3.10;;;;;;;16.16;38.12;100942.14;108148;1254;60855;-87
2023/04/18 08:05:18;;;;;;;5.80;2.80;;;;;;;16.15;38.51;100940.38;108378;1254;75119;-87
2023/04/18 08:08:08;;;;;;;6.70;2.80;;;;;;;16.13;38.00;100940.36;108851;1254;71703;-87
2023/04/18 08:10:36;;;;;;;8.20;2.80;;;;;;;16.07;37.90;100943.42;108629;1254;70882;-89
2023/04/18 08:13:05;;;;;;;6.20;2.60;;;;;;;16.04;38.37;100938.23;108066;1259;60770;-88
2023/04/18 08:15:33;;;;;;;7.70;3.10;;;;;;;16.08;38.21;100941.05;108089;1254;60316;-88
2023/04/18 08:18:02;;;;;;;5.80;2.70;;;;;;;16.10;38.15;100938.93;108003;1258;73706;-87
2023/04/18 08:20:31;;;;;;;5.70;2.60;;;;;;;16.11;38.08;100933.68;107910;1255;73684;-88
2023/04/18 08:22:59;;;;;;;6.50;2.70;;;;;;;16.14;38.06;100933.89;108002;1258;72067;-88
2023/04/18 08:25:31;;;;;;;5.90;2.80;;;;;;;16.24;38.24;100933.89;108064;1254;60784;-87
2023/04/18 08:28:01;;;;;;;8.30;2.70;;;;;;;16.32;38.39;100934.45;108139;1254;61514;-87
2023/04/18 08:30:34;;;;;;;5.50;2.90;;;;;;;16.43;38.54;100928.23;108491;1254;73307;-87
2023/04/18 08:33:02;;;;;;;4.50;2.50;;;;;;;16.63;38.04;100927.58;108823;1254;72916;-87
2023/04/18 08:35:31;;;;;;;5.30;2.50;;;;;;;16.72;37.50;100925.63;109176;1254;71359;-87
2023/04/18 08:38:00;;;;;;;4.40;2.60;;;;;;;16.76;38.22;100923.06;109191;1258;59585;-88
2023/04/18 08:40:29;;;;;;;6.40;2.90;;;;;;;16.83;37.79;100923.30;109061;1254;61210;-88
2023/04/18 08:42:57;;;;;;;5.20;2.80;;;;;;;17.05;37.31;100918.15;108261;1254;73005;-88
2023/04/18 08:45:27;;;;;;;5.00;2.40;;;;;;;17.26;37.22;100914.78;108145;1255;73829;-87
2023/04/18 08:48:00;;;;;;;6.00;2.60;;;;;;;17.36;37.09;100914.23;108117;1254;72873;-88
2023/04/18 08:50:29;;;;;;;6.00;3.00;;;;;;;17.43;37.37;100912.89;108127;1254;60416;-87
2023/04/18 08:53:01;;;;;;;6.40;2.70;;;;;;;17.50;37.33;100912.45;108194;1254;61230;-90
2023/04/18 08:55:32;;;;;;;7.30;2.60;;;;;;;17.58;37.14;100907.99;108076;1254;73022;-89
2023/04/18 08:58:02;;;;;;;8.30;3.60;;;;;;;17.62;36.92;100912.55;108085;1254;73326;-87
2023/04/18 09:00:31;;;;;;;6.00;3.00;;;;;;;17.62;37.17;100914.60;108088;1254;72665;-90
2023/04/18 09:03:01;;;;;;;7.30;3.10;;;;;;;17.56;37.42;100913.55;108080;1255;61331;-87
2023/04/18 09:05:30;;;;;;;4.10;2.20;;;;;;;17.51;37.26;100913.14;107870;1254;60338;-87
2023/04/18 09:07:58;;;;;;;5.40;2.30;;;;;;;17.43;36.36;100912.95;108102;1254;74678;-87
2023/04/18 09:10:32;;;;;;;5.20;2.30;;;;;;;17.35;36.47;100913.77;107868;1254;72081;-88
2023/04/18 09:13:02;;;;;;;7.90;2.10;;;;;;;17.33;36.61;100912.39;108037;1259;72394;-87
2023/04/18 09:15:33;;;;;;;5.10;2.20;;;;;;;17.38;36.13;100910.71;107989;1257;60531;-87
2023/04/18 09:18:04;;;;;;;;;;;;;;;17.29;35.59;100906.58;107923;1254;60513;-89
2023/04/18 09:20:42;;;;;;;4.60;2.10;;;;;;;17.28;35.91;100904.11;108014;1254;72609;-88
2023/04/18 09:23:15;;;;;;;4.90;2.40;;;;;;;17.29;36.41;100905.77;108066;1254;72288;-91
2023/04/18 11:26:54;;;;;;;5.20;2.30;;;;;;;14.11;48.93;100930.51;107627;1259;72608;-91
2023/04/18 11:29:27;;;;;;;6.30;2.40;;;;;;;14.02;49.81;100932.25;107554;1259;72523;-89
2023/04/18 11:31:56;;;;;;;6.30;2.50;;;;;;;13.92;50.50;100928.22;107431;1260;73882;-90
2023/04/18 11:34:29;;;;;;;7.50;2.50;;;;;;;13.87;51.28;100932.48;107546;1259;62066;-92
2023/04/18 11:37:05;;;;;;;10.30;2.90;;;;;;;13.79;52.07;100931.98;107468;1259;61216;-90
2023/04/18 11:39:35;;;;;;;7.40;2.40;;;;;;;13.75;52.43;100924.31;107912;1259;72253;-93
2023/04/18 11:42:06;;;;;;;9.20;2.90;;;;;;;13.83;52.68;100927.74;107575;1259;72881;-91
2023/04/18 11:44:38;;;;;;;7.50;2.70;;;;;;;13.93;52.94;100929.02;107616;1263;73080;-93
2023/04/18 11:47:28;;;;;;;6.30;3.00;;;;;;;13.91;53.42;100930.80;107691;1260;60419;-96
2023/04/18 11:50:00;;;;;;;8.20;3.10;;;;;;;14.00;53.59;100920.16;107685;1259;60360;-91
2023/04/18 11:52:30;;;;;;;8.10;3.40;;;;;;;14.09;53.53;100917.23;107650;1259;74937;-92
2023/04/18 11:55:25;;;;;;;7.30;3.10;;;;;;;14.10;53.65;100920.79;107745;1259;71925;-95
2023/04/18 11:58:09;;;;;;;11.90;3.80;;;;;;;14.20;54.01;100921.20;107878;1258;70103;-88
2023/04/18 12:00:38;;;;;;;7.40;3.10;;;;;;;14.27;54.20;100914.31;107565;1259;62787;-92
2023/04/18 12:03:14;;;;;;;6.70;2.80;;;;;;;14.31;54.06;100908.23;107689;1259;60451;-93
2023/04/18 12:05:44;;;;;;;9.70;3.20;;;;;;;14.34;53.94;100904.13;107757;1259;75244;-92
2023/04/18 12:08:19;;;;;;;8.20;3.10;;;;;;;14.47;53.72;100902.53;107746;1259;73996;-92
2023/04/18 12:10:49;;;;;;;6.30;3.10;;;;;;;14.43;53.88;100893.46;107689;1259;72398;-90
2023/04/18 12:13:23;;;;;;;6.70;2.60;;;;;;;14.39;53.86;100889.23;107631;1260;61243;-91
2023/04/18 12:15:53;;;;;;;12.00;3.00;;;;;;;14.34;54.02;100883.39;107729;1260;60433;-93
2023/04/18 12:18:23;;;;;;;7.10;3.10;;;;;;;14.20;54.20;100881.64;107651;1259;74139;-92
2023/04/18 12:20:55;;;;;;;7.30;2.70;;;;;;;13.97;54.54;100879.60;107600;1259;72592;-92
2023/04/18 12:23:39;;;;;;;8.10;3.20;;;;;;;13.80;54.94;100879.36;107661;1259;73233;-92
2023/04/18 12:26:12;;;;;;;7.40;2.90;;;;;;;13.77;55.42;100879.10;107642;1259;61898;-92
2023/04/18 12:28:43;;;;;;;6.70;3.10;;;;;;;13.84;55.82;100875.45;108406;1259;60025;-83
2023/04/18 12:31:18;;;;;;;9.30;3.20;;;;;;;14.07;55.88;100878.89;109185;1257;73844;-84
2023/04/18 12:33:46;;;;;;;5.40;2.70;;;;;;;14.21;56.13;100880.32;109190;1259;72436;-90
2023/04/18 12:36:14;;;;;;;9.20;3.50;;;;;;;14.24;56.45;100882.98;108475;1259;71915;-93
2023/04/18 12:38:44;;;;;;;6.60;3.10;;;;;;;14.34;56.84;100882.63;107753;1259;60216;-92
2023/04/18 12:41:15;;;;;;;7.20;3.20;;;;;;;14.42;56.84;100875.23;107684;1259;60344;-92
2023/04/18 12:43:43;;;;;;;7.30;2.90;;;;;;;14.39;56.72;100869.50;107665;1259;72639;-92
2023/04/18 12:46:12;;;;;;;7.90;3.20;;;;;;;14.37;56.13;100872.09;107757;1259;73879;-91
2023/04/18 12:48:40;;;;;;;8.00;3.40;;;;;;;14.37;56.01;100876.13;107705;1259;72517;-89
2023/04/18 12:51:08;;;;;;;6.10;2.90;;;;;;;14.41;55.77;100868.79;107780;1259;60573;-89
2023/04/18 12:53:36;;;;;;;13.70;3.20;;;;;;;14.41;55.56;100863.05;107843;1259;60343;-91
2023/04/18 12:56:05;;;;;;;8.50;3.40;;;;;;;14.43;55.51;100858.80;107743;1259;75032;-91
2023/04/18 12:58:33;;;;;;;9.20;3.30;;;;;;;14.37;55.74;100858.27;107650;1259;73780;-91
2023/04/18 13:01:03;;;;;;;7.90;3.40;;;;;;;14.35;55.66;100854.21;107751;1259;72678;-90
2023/04/18 13:03:32;;;;;;;9.40;3.90;;;;;;;14.35;55.76;100851.73;107716;1259;62879;-92
2023/04/18 13:06:01;;;;;;;7.70;3.60;;;;;;;14.37;55.82;100848.98;107676;1259;61764;-91
2023/04/18 13:08:29;;;;;;;7.50;3.70;;;;;;;14.39;55.56;100840.52;107793;1260;75081;-91
2023/04/18 13:11:00;;;;;;;7.90;3.50;;;;;;;14.37;55.41;100835.92;107738;1259;73703;-90
2023/04/18 13:13:29;;;;;;;8.10;4.00;;;;;;;14.36;55.58;100837.43;107767;1259;72972;-91
2023/04/18 13:15:58;;;;;;;6.20;3.40;;;;;;;14.36;55.66;100832.65;107686;1259;63151;-91
2023/04/18 13:18:26;;;;;;;10.80;3.40;;;;;;;14.31;55.70;100831.32;107766;1259;60386;-91
2023/04/18 13:20:55;;;;;;;9.30;3.50;;;;;;;14.25;56.00;100826.83;107758;1260;73971;-92
2023/04/18 13:23:24;;;;;;;6.90;2.60;;;;;;;14.19;56.05;100825.83;107783;1259;73999;-92
2023/04/18 13:25:55;;;;;;;7.70;3.20;;;;;;;14.13;56.23;100828.16;107755;1259;74340;-92
2023/04/18 13:28:30;;;;;;;9.50;3.30;;;;;;;14.13;56.57;100821.60;107883;1259;61191;-91
2023/04/18 13:31:03;;;;;;;10.10;3.20;;;;;;;14.19;56.70;100821.95;107792;1259;60313;-90
2023/04/18 13:33:32;;;;;;;6.70;3.40;;;;;;;14.22;57.00;100827.81;107764;1258;74107;-91
2023/04/18 13:36:00;;;;;;;5.90;3.20;;;;;;;14.36;57.05;100824.80;107757;1259;72979;-89